Brownfield, ME (04010)

12:35 PM EST on March 01, 2015 (GMT -0500)
misty lane | Change Station
CLOSE
Current Station
Personal Weather Station
Location: Brownfield, ME
Elevation: 404 ft
Nearby Weather Stations

Elev 404 ft 43.94 °N, 70.87 °W | Updated 4 minutes ago

Mostly Cloudy
Mostly Cloudy
29.0 °F
Feels Like 29 °F
N
0.0
Wind Variable Wind from SE
Gusts 5.0 mph

Today
High -- | Low -- °F
--% Chance of Precip.
Yesterday
High -- | Low -- °F
Precip. -- in
6:20 AM 5:31 PM
Waxing Gibbous, 86% visible
Pressure 30.54 in
Visibility 10.0 miles
Clouds Mostly Cloudy 8000 ft
Windchill 29 °F
Dew Point 7 °F
Humidity 39%
Rainfall 0.00 in
Snow Depth Not available.
UV 3 out of 12
Pollen .30 out of 12
Air Quality Not available.
Flu Activity Not available.
METAR KIZG 011654Z AUTO 10005KT 10SM BKN080 M04/M16 A3050 RMK AO2 PRESFR SLP340 T10441161

More Conditions Fewer Conditions

Pressure 30.54 in
Visibility 10.0 miles
Clouds Mostly Cloudy 8000 ft
Windchill 29 °F
Dew Point 7 °F
Humidity 39%
Rainfall 0.00 in
Snow Depth Not available.
UV 3 out of 12
Pollen .30 out of 12
Air Quality Not available.
Flu Activity Not available.
METAR KIZG 011654Z AUTO 10005KT 10SM BKN080 M04/M16 A3050 RMK AO2 PRESFR SLP340 T10441161

More Conditions Fewer Conditions

10-Day Weather Forecast

Almanac

Astronomy

Mar. 01, 2015 Rise Set
Actual Time
Civil Twilight
Nautical Twilight
Astronomical Twilight
Moon
Length of Visible Light
Length of Day
Tomorrow will be .
, % of the Moon is Illuminated

Today's Extremes

State Highs State Lows

Community

WunderPhotos

Upload Photos

1,801,478 photos uploaded!

WunderBlogs® & News

Nearby

Air Quality

  Air Quality AQ Index Pollutant
Not available.

Snow Depth

Station Depth Elevation

Earthquake Activity

City Distance Mag. Time & Date
Minimum magnitude displayed is 2.5.

Coastal Water Temperatures

Place Temperature

Nearby Weather Stations